Time;durP1;ratioP1;P1;durP2;ratioP2;P2;SDS_P1;SDS_P2;PMS_P1;PMS_P2;Temp;Humidity;BMP_temperature;BMP_pressure;BME280_temperature;BME280_humidity;BME280_pressure;Samples;Min_cycle;Max_cycle;Signal;HPM_P1;HPM_P2
2023/04/24 00:02:01;;;;;;;1.05;1.05;;;;;;;7.77;81.96;99273.94;5023786;28;20342;-70
2023/04/24 00:04:26;;;;;;;0.50;0.50;;;;;;;7.79;81.88;99279.94;5025083;28;20029;-69
2023/04/24 00:06:54;;;;;;;0.60;0.60;;;;;;;7.75;81.77;99279.97;5023620;28;20076;-71
2023/04/24 00:09:19;;;;;;;0.40;0.40;;;;;;;7.74;81.49;99273.97;5025158;28;20022;-70
2023/04/24 00:11:45;;;;;;;12.65;2.25;;;;;;;7.76;81.14;99281.72;5024938;28;20086;-68
2023/04/24 00:14:10;;;;;;;0.50;0.50;;;;;;;7.72;80.94;99267.13;5025515;28;20034;-69
2023/04/24 00:16:36;;;;;;;0.40;0.40;;;;;;;7.68;80.91;99267.16;5025094;28;20161;-68
2023/04/24 00:19:01;;;;;;;1.10;1.10;;;;;;;7.63;80.65;99263.81;5039719;28;20025;-69
2023/04/24 00:21:26;;;;;;;0.50;0.50;;;;;;;7.61;80.54;99269.84;5024762;28;20030;-69
2023/04/24 00:23:52;;;;;;;1.85;1.75;;;;;;;7.52;80.84;99265.69;5025094;28;20029;-69
2023/04/24 00:26:18;;;;;;;0.47;0.47;;;;;;;7.51;81.01;99266.56;5025216;28;20022;-68
2023/04/24 00:28:43;;;;;;;0.50;0.50;;;;;;;7.50;80.93;99267.44;5026554;28;20401;-70
2023/04/24 00:31:09;;;;;;;0.82;0.82;;;;;;;7.43;81.15;99267.53;5027804;28;20032;-70
2023/04/24 00:33:34;;;;;;;0.55;0.55;;;;;;;7.41;81.05;99274.44;5028850;28;20386;-70
2023/04/24 00:36:00;;;;;;;1.27;1.27;;;;;;;7.44;80.95;99258.06;5027050;28;20053;-70
2023/04/24 00:38:25;;;;;;;0.40;0.40;;;;;;;7.44;80.74;99264.06;5028755;28;20032;-70
2023/04/24 00:40:51;;;;;;;0.45;0.45;;;;;;;7.37;80.99;99253.84;5028545;28;20037;-69
2023/04/24 00:43:16;;;;;;;0.40;0.40;;;;;;;7.35;81.03;99264.19;5028566;28;20525;-70
2023/04/24 00:45:42;;;;;;;0.95;0.95;;;;;;;7.38;80.95;99261.56;5028354;28;20022;-70
2023/04/24 00:48:07;;;;;;;0.50;0.50;;;;;;;7.39;80.89;99258.13;5043651;28;20050;-70
2023/04/24 00:50:33;;;;;;;0.65;0.65;;;;;;;7.24;81.35;99260.88;5028639;28;20026;-70
2023/04/24 00:52:58;;;;;;;0.88;0.88;;;;;;;7.23;81.40;99269.53;5043759;28;20025;-70
2023/04/24 00:55:25;;;;;;;0.85;0.85;;;;;;;7.16;81.60;99261.84;5028535;28;20026;-70
2023/04/24 00:57:51;;;;;;;0.40;0.40;;;;;;;7.16;81.31;99256.69;5028404;28;20089;-70
2023/04/24 01:00:17;;;;;;;0.40;0.40;;;;;;;7.16;81.50;99263.56;5027109;28;20053;-69
2023/04/24 01:02:44;;;;;;;2.83;2.63;;;;;;;7.22;81.06;99267.81;5028088;28;20112;-69
2023/04/24 01:05:14;;;;;;;0.40;0.40;;;;;;;7.28;81.03;99260.84;5027133;28;20026;-69
2023/04/24 01:07:45;;;;;;;3.83;3.20;;;;;;;7.24;80.94;99243.69;5025437;28;20033;-69
2023/04/24 01:10:11;;;;;;;0.50;0.50;;;;;;;7.32;81.10;99259.06;5028084;28;20018;-69
2023/04/24 01:12:37;;;;;;;1.02;0.98;;;;;;;7.33;81.07;99255.63;5026638;28;20029;-69
2023/04/24 01:15:03;;;;;;;1.15;1.15;;;;;;;7.32;81.28;99254.75;5027685;28;20108;-70
2023/04/24 01:17:29;;;;;;;0.60;0.60;;;;;;;7.32;81.31;99254.75;5026550;28;20028;-70
2023/04/24 01:19:56;;;;;;;0.40;0.40;;;;;;;7.43;81.18;99256.34;5042998;28;20022;-70
2023/04/24 01:22:22;;;;;;;0.77;0.77;;;;;;;7.33;81.23;99234.97;5026517;28;20509;-69
2023/04/24 01:24:47;;;;;;;0.82;0.82;;;;;;;7.48;81.15;99270.03;5027852;28;20033;-69
2023/04/24 01:27:13;;;;;;;0.40;0.40;;;;;;;7.49;81.17;99258.00;5027851;28;20049;-69
2023/04/24 01:29:39;;;;;;;0.40;0.40;;;;;;;7.60;80.96;99263.84;5026134;28;20053;-68
2023/04/24 01:32:05;;;;;;;0.40;0.40;;;;;;;7.61;80.81;99256.94;5027772;28;20102;-69
2023/04/24 01:34:31;;;;;;;0.68;0.68;;;;;;;7.59;80.87;99254.38;5027394;28;20082;-69
2023/04/24 01:36:56;;;;;;;0.57;0.57;;;;;;;7.60;80.72;99248.38;5027172;28;20033;-69
2023/04/24 01:39:25;;;;;;;0.50;0.50;;;;;;;7.64;80.70;99249.16;5027751;28;20022;-69
2023/04/24 01:41:52;;;;;;;2.08;1.98;;;;;;;7.63;80.39;99247.44;5026019;28;20018;-71
2023/04/24 01:44:18;;;;;;;0.52;0.52;;;;;;;7.55;80.38;99234.66;5026226;28;20025;-70
2023/04/24 01:46:43;;;;;;;0.55;0.55;;;;;;;7.63;80.60;99250.91;5027061;28;20033;-70
2023/04/24 01:49:09;;;;;;;1.98;1.88;;;;;;;7.63;80.72;99248.31;5027099;28;20517;-69
2023/04/24 01:51:34;;;;;;;0.40;0.40;;;;;;;7.62;80.51;99245.75;5042324;28;20161;-69
2023/04/24 01:54:00;;;;;;;1.15;1.15;;;;;;;7.61;80.44;99231.97;5027124;28;20037;-71
2023/04/24 01:56:28;;;;;;;0.60;0.60;;;;;;;7.61;80.58;99224.22;5027391;28;20022;-71
2023/04/24 01:58:55;;;;;;;3.72;1.67;;;;;;;7.68;80.42;99232.75;5024833;28;20030;-70
2023/04/24 02:01:20;;;;;;;0.50;0.50;;;;;;;7.56;80.67;99211.38;5025368;28;20029;-70
2023/04/24 02:03:46;;;;;;;0.98;0.98;;;;;;;7.67;80.24;99233.59;5026826;28;20018;-70
2023/04/24 02:06:12;;;;;;;1.48;1.42;;;;;;;7.55;80.26;99234.66;5026230;28;20031;-69
2023/04/24 02:08:37;;;;;;;5.18;1.98;;;;;;;7.57;80.49;99231.16;5026959;28;20037;-71
2023/04/24 02:11:03;;;;;;;1.10;1.10;;;;;;;7.59;80.40;99233.72;5025780;28;20481;-68
2023/04/24 02:13:28;;;;;;;0.50;0.50;;;;;;;7.52;80.39;99208.88;5025506;28;20037;-71
2023/04/24 02:15:54;;;;;;;0.55;0.55;;;;;;;7.59;80.15;99214.81;5026934;28;20132;-70
2023/04/24 02:18:19;;;;;;;0.50;0.50;;;;;;;7.59;80.32;99215.63;5026592;28;20152;-71
2023/04/24 02:20:45;;;;;;;0.70;0.70;;;;;;;7.66;80.01;99217.28;5026492;28;20026;-70
2023/04/24 02:23:11;;;;;;;0.50;0.50;;;;;;;7.63;80.00;99209.56;5026738;28;20052;-70
2023/04/24 02:25:36;;;;;;;0.40;0.40;;;;;;;7.61;80.00;99202.69;5026545;28;20180;-70
2023/04/24 02:28:02;;;;;;;1.60;1.58;;;;;;;7.56;80.08;99201.06;5026625;28;20022;-69
2023/04/24 02:30:28;;;;;;;0.80;0.80;;;;;;;7.60;80.19;99196.69;5023572;28;20032;-70
2023/04/24 02:32:53;;;;;;;2.50;1.92;;;;;;;7.62;79.60;99194.09;5024877;28;20033;-70
2023/04/24 02:35:19;;;;;;;0.50;0.50;;;;;;;7.59;79.89;99207.88;5026601;28;20029;-70
2023/04/24 02:37:44;;;;;;;0.40;0.40;;;;;;;7.63;79.89;99216.47;5026556;28;20379;-69
2023/04/24 02:40:10;;;;;;;0.40;0.40;;;;;;;7.55;80.03;99216.56;5026327;28;20482;-68
2023/04/24 02:42:35;;;;;;;0.77;0.77;;;;;;;7.63;79.47;99206.13;5026316;28;20033;-69
2023/04/24 02:45:01;;;;;;;2.38;2.28;;;;;;;7.74;79.14;99213.69;5024928;28;20517;-70
2023/04/24 02:47:26;;;;;;;2.15;2.05;;;;;;;7.72;79.37;99200.81;5026170;28;20470;-70
2023/04/24 02:49:51;;;;;;;0.40;0.40;;;;;;;7.68;79.02;99186.25;5025482;28;20293;-69
2023/04/24 02:52:17;;;;;;;1.08;1.08;;;;;;;7.69;79.11;99186.22;5025940;28;20030;-69
2023/04/24 02:54:43;;;;;;;1.95;1.85;;;;;;;7.71;79.06;99193.09;5025881;28;20030;-70
2023/04/24 02:57:08;;;;;;;0.75;0.75;;;;;;;7.72;78.99;99189.59;5026036;28;20033;-70
2023/04/24 02:59:34;;;;;;;0.60;0.60;;;;;;;7.70;79.13;99181.88;5025951;28;20466;-70
2023/04/24 03:01:59;;;;;;;0.50;0.50;;;;;;;7.73;78.84;99187.00;5025948;28;20029;-69
2023/04/24 03:04:26;;;;;;;0.50;0.50;;;;;;;7.65;79.00;99183.72;5025893;28;20037;-69
2023/04/24 03:06:52;;;;;;;0.40;0.40;;;;;;;7.65;78.78;99179.38;5041159;28;20389;-70
2023/04/24 03:09:18;;;;;;;0.63;0.63;;;;;;;7.66;78.66;99175.94;5025997;28;20036;-71
2023/04/24 03:11:43;;;;;;;0.30;0.30;;;;;;;7.65;78.60;99178.53;5024433;28;20116;-71
2023/04/24 03:14:09;;;;;;;2.72;2.60;;;;;;;7.61;78.77;99177.72;5024719;28;20076;-70
2023/04/24 03:16:34;;;;;;;1.15;1.10;;;;;;;7.56;78.93;99171.78;5025909;28;20025;-70
2023/04/24 03:19:00;;;;;;;0.40;0.40;;;;;;;7.54;79.10;99173.56;5025663;28;20032;-69
2023/04/24 03:21:26;;;;;;;0.43;0.43;;;;;;;7.57;78.78;99179.50;5024341;28;20117;-70
2023/04/24 03:23:52;;;;;;;0.30;0.30;;;;;;;7.54;78.76;99174.38;5038860;28;20022;-69
2023/04/24 03:26:17;;;;;;;1.00;1.00;;;;;;;7.62;78.84;99174.25;5025444;28;20034;-69
2023/04/24 03:28:42;;;;;;;0.40;0.40;;;;;;;7.52;78.76;99167.56;5025306;28;20058;-69
2023/04/24 03:31:08;;;;;;;0.50;0.50;;;;;;;7.55;78.63;99164.91;5025352;28;20045;-70
2023/04/24 03:33:33;;;;;;;0.60;0.60;;;;;;;7.52;78.60;99173.59;5025101;28;20090;-70
2023/04/24 03:35:59;;;;;;;0.47;0.47;;;;;;;7.54;78.68;99168.38;5024389;28;20026;-72
2023/04/24 03:38:24;;;;;;;0.40;0.40;;;;;;;7.47;78.86;99159.88;5024307;28;20022;-70
2023/04/24 03:40:50;;;;;;;2.83;1.40;;;;;;;7.46;78.96;99158.16;5024302;28;20022;-70
2023/04/24 03:43:15;;;;;;;5.10;2.05;;;;;;;7.42;78.95;99151.34;5040342;28;20025;-70
2023/04/24 03:45:41;;;;;;;0.47;0.47;;;;;;;7.46;78.92;99152.16;5024506;28;20030;-71
2023/04/24 03:48:07;;;;;;;1.25;1.25;;;;;;;7.42;79.14;99146.19;5025061;28;20041;-70
2023/04/24 03:50:32;;;;;;;0.40;0.40;;;;;;;7.42;79.21;99153.94;5040410;28;20026;-69
2023/04/24 03:52:58;;;;;;;0.40;0.40;;;;;;;7.46;79.24;99152.16;5024922;28;20343;-69
2023/04/24 03:55:23;;;;;;;0.47;0.47;;;;;;;7.51;79.10;99158.94;5025488;28;20021;-70
2023/04/24 03:57:49;;;;;;;1.20;1.17;;;;;;;7.55;79.01;99149.41;5025319;28;20025;-69
2023/04/24 04:00:15;;;;;;;1.65;0.80;;;;;;;7.64;78.75;99157.03;5021645;28;20390;-69
2023/04/24 04:02:41;;;;;;;0.50;0.50;;;;;;;7.62;78.79;99140.69;5024261;28;20022;-67
2023/04/24 04:05:07;;;;;;;0.40;0.40;;;;;;;7.69;79.02;99138.84;5023918;28;20187;-68
2023/04/24 04:07:33;;;;;;;2.50;2.30;;;;;;;7.79;78.46;99145.59;5025137;28;20129;-70
2023/04/24 04:09:58;;;;;;;0.63;0.63;;;;;;;7.83;78.22;99153.28;5025121;28;20022;-69
2023/04/24 04:12:24;;;;;;;0.40;0.40;;;;;;;7.82;78.47;99149.84;5024669;28;20025;-68
2023/04/24 04:14:49;;;;;;;0.40;0.40;;;;;;;7.89;78.25;99156.59;5025168;28;20056;-69
2023/04/24 04:17:15;;;;;;;0.40;0.40;;;;;;;7.92;77.94;99153.13;5025042;28;20021;-68
2023/04/24 04:19:40;;;;;;;0.40;0.40;;;;;;;7.88;77.76;99147.13;5023664;28;20025;-68
2023/04/24 04:22:07;;;;;;;4.03;2.08;;;;;;;7.92;77.77;99147.94;5025058;28;20061;-69
2023/04/24 04:24:33;;;;;;;0.40;0.40;;;;;;;7.96;77.49;99146.13;5023789;28;20032;-70
2023/04/24 04:27:00;;;;;;;0.40;0.40;;;;;;;7.92;77.58;99138.44;5040142;28;20058;-71
2023/04/24 04:29:25;;;;;;;0.70;0.70;;;;;;;7.97;77.39;99135.78;5025181;28;20359;-70
2023/04/24 04:31:51;;;;;;;0.60;0.60;;;;;;;8.08;76.95;99139.91;5020739;28;20053;-69
2023/04/24 04:34:17;;;;;;;2.35;2.15;;;;;;;8.02;77.00;99140.88;5024956;28;20064;-69
2023/04/24 04:36:43;;;;;;;0.40;0.40;;;;;;;8.04;76.92;99139.09;5024653;28;20080;-68
2023/04/24 04:39:08;;;;;;;0.40;0.40;;;;;;;8.11;76.66;99139.84;5024931;28;20026;-68
2023/04/24 04:41:37;;;;;;;0.40;0.40;;;;;;;8.10;76.57;99149.31;5038252;28;20029;-68
2023/04/24 04:44:04;;;;;;;1.30;1.27;;;;;;;8.12;76.50;99142.41;5025119;28;20028;-68
2023/04/24 04:46:32;;;;;;;0.73;0.55;;;;;;;8.17;76.38;99153.53;5025220;28;20026;-68
2023/04/24 04:48:57;;;;;;;0.40;0.40;;;;;;;8.15;76.39;99142.34;5023717;28;20049;-68
2023/04/24 04:51:23;;;;;;;0.90;0.90;;;;;;;8.08;76.68;99148.53;5023418;28;20101;-68
2023/04/24 04:53:48;;;;;;;1.13;1.13;;;;;;;8.16;76.02;99136.28;5023486;28;20032;-68
2023/04/24 04:56:14;;;;;;;0.65;0.65;;;;;;;8.17;75.86;99144.91;5023871;28;20106;-67
2023/04/24 04:58:39;;;;;;;7.05;1.95;;;;;;;8.18;76.18;99142.28;5023912;28;20030;-67
2023/04/24 05:01:04;;;;;;;0.40;0.40;;;;;;;8.24;75.82;99146.47;5023667;28;20030;-68
2023/04/24 05:03:30;;;;;;;1.73;1.63;;;;;;;8.15;76.21;99152.69;5038674;28;20022;-68
2023/04/24 05:05:55;;;;;;;0.40;0.40;;;;;;;8.05;76.64;99146.00;5023755;28;20085;-69
2023/04/24 05:08:21;;;;;;;0.60;0.60;;;;;;;8.18;76.09;99139.69;5023936;28;20033;-68
2023/04/24 05:10:46;;;;;;;0.40;0.40;;;;;;;8.21;75.86;99150.88;5023634;28;20026;-69
2023/04/24 05:13:11;;;;;;;1.50;1.50;;;;;;;8.15;76.28;99146.66;5040056;28;20044;-68
2023/04/24 05:15:37;;;;;;;1.50;1.10;;;;;;;8.37;75.40;99139.34;5026143;28;20030;-66
2023/04/24 05:18:02;;;;;;;0.47;0.47;;;;;;;8.25;75.65;99148.19;5025393;28;20525;-68
2023/04/24 05:20:28;;;;;;;0.40;0.40;;;;;;;8.21;75.62;99145.72;5027151;28;20065;-70
2023/04/24 05:22:53;;;;;;;0.38;0.38;;;;;;;8.16;75.79;99130.28;5025346;28;20056;-69
2023/04/24 05:25:19;;;;;;;3.92;1.35;;;;;;;8.18;75.67;99128.50;5025557;28;20052;-73
2023/04/24 05:27:46;;;;;;;1.25;1.25;;;;;;;8.20;75.87;99142.25;5026809;28;20028;-71
2023/04/24 05:30:12;;;;;;;0.55;0.55;;;;;;;8.14;75.71;99130.31;5025426;28;20032;-70
2023/04/24 05:32:37;;;;;;;0.55;0.55;;;;;;;8.15;76.05;99137.19;5026479;28;20041;-70
2023/04/24 05:35:03;;;;;;;0.43;0.43;;;;;;;8.27;75.30;99136.09;5026871;28;20022;-70
2023/04/24 05:37:28;;;;;;;0.40;0.40;;;;;;;8.20;75.79;99139.66;5025419;28;20026;-71
2023/04/24 05:39:53;;;;;;;0.50;0.50;;;;;;;8.24;75.67;99137.88;5026655;28;20029;-70
2023/04/24 05:42:19;;;;;;;0.70;0.70;;;;;;;8.18;76.51;99144.00;5024434;28;20112;-71
2023/04/24 05:44:44;;;;;;;0.40;0.40;;;;;;;8.22;76.50;99140.50;5025141;28;20022;-71
2023/04/24 05:47:10;;;;;;;0.67;0.67;;;;;;;8.24;76.35;99136.13;4985440;28;1166788;-72
2023/04/24 05:49:35;;;;;;;0.70;0.70;;;;;;;8.33;75.99;99129.94;5042688;28;20437;-71
2023/04/24 05:52:01;;;;;;;1.60;1.50;;;;;;;8.34;75.88;99136.81;5026211;28;20022;-71
2023/04/24 05:54:26;;;;;;;2.38;1.30;;;;;;;8.40;75.40;99133.28;5024447;28;20076;-71
2023/04/24 05:56:51;;;;;;;0.40;0.40;;;;;;;8.47;75.12;99137.44;5027612;28;20037;-71
2023/04/24 05:59:17;;;;;;;0.40;0.40;;;;;;;8.41;74.54;99122.91;5027300;28;20026;-72
2023/04/24 06:01:42;;;;;;;2.53;2.40;;;;;;;8.49;74.21;99145.16;5027199;28;20116;-71
2023/04/24 06:04:08;;;;;;;0.40;0.40;;;;;;;8.49;74.03;99145.16;5025865;28;20037;-71
2023/04/24 06:06:34;;;;;;;4.88;4.53;;;;;;;8.42;74.16;99140.09;5027151;28;20034;-71
2023/04/24 06:09:00;;;;;;;0.40;0.40;;;;;;;8.46;74.02;99140.03;5025983;28;20465;-71
2023/04/24 06:11:25;;;;;;;0.40;0.40;;;;;;;8.48;73.81;99130.53;5027393;28;20025;-72
2023/04/24 06:13:51;;;;;;;2.05;1.48;;;;;;;8.34;74.31;99131.63;5027370;28;20033;-71
2023/04/24 06:16:17;;;;;;;1.95;1.50;;;;;;;8.37;74.34;99126.41;5027202;28;20029;-70
2023/04/24 06:18:42;;;;;;;0.40;0.40;;;;;;;8.39;74.18;99124.66;5025795;28;20056;-71
2023/04/24 06:21:08;;;;;;;0.40;0.40;;;;;;;8.39;74.40;99124.66;5042129;28;20085;-71
2023/04/24 06:23:33;;;;;;;0.50;0.50;;;;;;;8.65;72.85;99118.13;5042501;28;20057;-72
2023/04/24 06:25:59;;;;;;;0.40;0.40;;;;;;;8.45;73.64;99121.06;5024917;28;20160;-70
2023/04/24 06:28:26;;;;;;;0.68;0.68;;;;;;;8.53;73.80;99116.59;5026498;28;20026;-72
2023/04/24 06:30:51;;;;;;;0.40;0.40;;;;;;;8.61;73.65;99119.06;5026783;28;20018;-71
2023/04/24 06:33:16;;;;;;;0.45;0.45;;;;;;;8.74;72.93;99113.66;5026651;28;20089;-71
2023/04/24 06:35:42;;;;;;;0.38;0.38;;;;;;;8.72;73.08;99116.22;5025514;28;20056;-72
2023/04/24 06:38:08;;;;;;;0.40;0.40;;;;;;;8.88;72.09;99121.94;5026951;28;20097;-71
2023/04/24 06:40:33;;;;;;;0.40;0.40;;;;;;;8.86;71.79;99121.13;5026664;28;20032;-71
2023/04/24 06:42:59;;;;;;;0.63;0.63;;;;;;;8.90;71.71;99125.34;5026440;28;20097;-69
2023/04/24 06:45:25;;;;;;;0.40;0.40;;;;;;;8.92;71.70;99114.97;5026658;28;20461;-72
2023/04/24 06:47:51;;;;;;;0.40;0.40;;;;;;;9.14;70.27;99102.38;5026281;28;20073;-72
2023/04/24 06:50:17;;;;;;;0.40;0.40;;;;;;;9.08;70.99;99120.63;5026621;28;20026;-72
2023/04/24 06:52:42;;;;;;;0.40;0.40;;;;;;;9.33;70.09;99121.81;5026556;28;20085;-71
2023/04/24 06:55:08;;;;;;;0.90;0.90;;;;;;;9.36;69.60;99124.31;5023852;28;20089;-71
2023/04/24 06:57:33;;;;;;;1.08;1.02;;;;;;;9.30;70.30;99133.94;5025491;28;20044;-70
2023/04/24 06:59:59;;;;;;;0.40;0.40;;;;;;;9.42;70.00;99140.53;5026152;28;20032;-70
2023/04/24 07:02:24;;;;;;;0.40;0.40;;;;;;;9.39;70.01;99132.84;5024338;28;20026;-71
2023/04/24 07:04:50;;;;;;;0.35;0.35;;;;;;;9.55;69.24;99148.03;5025871;28;20500;-70
2023/04/24 07:07:16;;;;;;;0.95;0.93;;;;;;;9.48;68.83;99154.25;5026424;28;20025;-71
2023/04/24 07:09:42;;;;;;;0.60;0.60;;;;;;;9.33;69.04;99147.72;5024994;28;20044;-71
2023/04/24 07:12:10;;;;;;;0.50;0.50;;;;;;;9.14;69.60;99136.03;5026182;28;20033;-70
2023/04/24 07:14:36;;;;;;;1.85;1.40;;;;;;;9.15;70.34;99150.66;5026248;28;20041;-71
2023/04/24 07:17:03;;;;;;;0.40;0.40;;;;;;;9.24;69.92;99144.44;5026220;28;20022;-72
2023/04/24 07:19:28;;;;;;;0.40;0.40;;;;;;;9.18;70.01;99142.81;5025257;28;20388;-70
2023/04/24 07:21:54;;;;;;;0.40;0.40;;;;;;;9.21;70.02;99146.25;5023190;28;20485;-71
2023/04/24 07:24:20;;;;;;;0.40;0.40;;;;;;;9.04;70.71;99139.72;5026094;28;20112;-70
2023/04/24 07:26:46;;;;;;;0.40;0.40;;;;;;;9.08;70.54;99154.28;5026089;28;20029;-70
2023/04/24 07:29:12;;;;;;;0.40;0.40;;;;;;;8.85;71.37;99147.06;5026067;28;20026;-71
2023/04/24 07:31:38;;;;;;;0.40;0.40;;;;;;;8.88;71.52;99155.56;5025947;28;20093;-71
2023/04/24 07:34:04;;;;;;;0.45;0.45;;;;;;;8.79;71.93;99161.81;5024383;28;20397;-70
2023/04/24 07:36:29;;;;;;;0.40;0.40;;;;;;;8.75;72.31;99144.66;5025767;28;20030;-71
2023/04/24 07:38:56;;;;;;;0.40;0.40;;;;;;;8.60;72.53;99163.06;5025819;28;20022;-71
2023/04/24 07:41:22;;;;;;;0.60;0.60;;;;;;;8.43;73.33;99154.72;5021414;28;20549;-70
2023/04/24 07:43:47;;;;;;;0.60;0.60;;;;;;;8.42;73.87;99168.56;5024280;28;20033;-71
2023/04/24 07:46:13;;;;;;;0.40;0.40;;;;;;;8.45;73.97;99180.56;5025628;28;20026;-73
2023/04/24 07:48:38;;;;;;;0.82;0.82;;;;;;;8.47;74.13;99183.13;5025259;28;20114;-70
2023/04/24 07:51:04;;;;;;;3.20;1.45;;;;;;;8.21;74.70;99168.97;5025470;28;20021;-71
2023/04/24 07:53:30;;;;;;;0.47;0.47;;;;;;;8.29;75.27;99180.03;5024247;28;20093;-69
2023/04/24 07:55:56;;;;;;;0.40;0.40;;;;;;;8.22;75.74;99179.28;5021623;28;20036;-69
2023/04/24 07:58:21;;;;;;;0.40;0.40;;;;;;;8.09;76.57;99189.00;5025480;28;20028;-71
2023/04/24 08:00:47;;;;;;;0.40;0.40;;;;;;;8.12;77.54;99194.09;5024052;28;20029;-71
2023/04/24 08:03:12;;;;;;;0.50;0.50;;;;;;;7.94;77.76;99175.47;5025229;28;20045;-72
2023/04/24 08:05:38;;;;;;;1.40;1.40;;;;;;;7.81;78.39;99187.72;5025463;28;20030;-71
2023/04/24 08:08:04;;;;;;;0.40;0.40;;;;;;;7.74;78.86;99172.34;5025619;28;20052;-72
2023/04/24 08:10:29;;;;;;;0.40;0.40;;;;;;;7.72;80.02;99174.97;5024237;28;20045;-73
2023/04/24 08:12:55;;;;;;;0.40;0.40;;;;;;;7.55;80.63;99173.53;5025276;28;20029;-70
2023/04/24 08:15:20;;;;;;;1.80;1.67;;;;;;;7.49;80.97;99162.44;5025470;28;20026;-72
2023/04/24 08:17:46;;;;;;;0.50;0.50;;;;;;;7.61;80.91;99161.38;5025264;28;20030;-73
2023/04/24 08:20:15;;;;;;;0.40;0.40;;;;;;;7.61;80.88;99156.22;5024446;28;20022;-75
2023/04/24 08:22:41;;;;;;;0.75;0.75;;;;;;;7.39;81.70;99157.41;5025057;28;20018;-73
2023/04/24 08:25:07;;;;;;;0.45;0.45;;;;;;;7.37;81.94;99154.00;5025118;28;20104;-74
2023/04/24 08:27:33;;;;;;;1.02;1.02;;;;;;;7.47;81.47;99135.78;5025247;28;20049;-73
2023/04/24 08:30:01;;;;;;;0.55;0.55;;;;;;;7.47;81.43;99143.53;5025307;28;20026;-73
2023/04/24 08:32:29;;;;;;;0.40;0.40;;;;;;;7.38;81.62;99135.03;5023825;28;20539;-73
2023/04/24 08:34:56;;;;;;;0.68;0.68;;;;;;;7.22;82.54;99133.59;5023881;28;20116;-72
2023/04/24 08:37:25;;;;;;;0.40;0.40;;;;;;;7.36;82.35;99130.78;5023715;28;20052;-72
2023/04/24 08:39:51;;;;;;;0.40;0.40;;;;;;;7.22;83.52;99131.00;5023768;28;20098;-72
2023/04/24 08:42:18;;;;;;;0.45;0.45;;;;;;;7.14;84.22;99139.69;5024905;28;20030;-72
2023/04/24 08:44:44;;;;;;;0.40;0.40;;;;;;;7.25;84.53;99138.69;5025162;28;20034;-73
2023/04/24 08:47:10;;;;;;;1.10;1.00;;;;;;;7.13;84.89;99121.66;5024845;28;20049;-71
2023/04/24 08:49:36;;;;;;;0.40;0.40;;;;;;;7.29;84.54;99125.72;5028959;28;20022;-70
2023/04/24 08:52:02;;;;;;;0.40;0.40;;;;;;;7.17;85.39;99131.91;5027086;28;20049;-71
2023/04/24 08:54:28;;;;;;;0.40;0.40;;;;;;;7.09;85.78;99128.63;5028159;28;20085;-71
2023/04/24 08:57:01;;;;;;;0.40;0.40;;;;;;;7.07;85.72;99138.97;5028877;28;20033;-70
2023/04/24 08:59:28;;;;;;;2.70;2.45;;;;;;;7.11;85.29;99126.84;5027218;28;20021;-70
2023/04/24 09:01:55;;;;;;;0.40;0.40;;;;;;;7.03;85.94;99118.34;5028365;28;20025;-71
2023/04/24 09:04:24;;;;;;;0.88;0.88;;;;;;;6.86;86.00;99127.22;5026510;28;20307;-72
2023/04/24 09:06:50;;;;;;;0.40;0.40;;;;;;;6.81;86.60;99126.41;5028740;28;20037;-72
2023/04/24 09:09:18;;;;;;;0.50;0.50;;;;;;;6.77;86.74;99117.03;5028673;28;20029;-71
2023/04/24 09:11:44;;;;;;;0.40;0.40;;;;;;;6.65;86.99;99118.88;5028632;28;20029;-71
2023/04/24 09:14:10;;;;;;;0.40;0.40;;;;;;;6.59;87.63;99111.22;5028477;28;20026;-70
2023/04/24 09:16:36;;;;;;;0.55;0.55;;;;;;;6.56;87.84;99104.41;5028589;28;20034;-70
2023/04/24 09:19:02;;;;;;;0.40;0.40;;;;;;;6.61;86.90;99095.72;5028422;28;20029;-71
2023/04/24 09:21:33;;;;;;;0.43;0.43;;;;;;;6.68;86.68;99105.94;5028276;28;20026;-71
2023/04/24 09:24:01;;;;;;;0.60;0.60;;;;;;;6.57;87.24;99094.91;5028704;28;20021;-71
2023/04/24 09:26:31;;;;;;;1.58;1.48;;;;;;;6.56;87.86;99106.13;5027979;28;20109;-69
2023/04/24 09:28:56;;;;;;;0.40;0.40;;;;;;;6.62;87.48;99085.41;5027191;28;20052;-69
2023/04/24 09:31:22;;;;;;;0.40;0.40;;;;;;;6.69;87.43;99087.00;5027775;28;20018;-69
2023/04/24 09:33:55;;;;;;;0.40;0.40;;;;;;;6.91;86.70;99091.03;5027857;28;20037;-69
2023/04/24 09:36:32;;;;;;;0.40;0.40;;;;;;;6.88;86.37;99091.94;5026845;28;20021;-70
2023/04/24 09:38:59;;;;;;;0.40;0.40;;;;;;;7.06;85.77;99092.53;5028169;28;20105;-70
2023/04/24 09:41:25;;;;;;;0.40;0.40;;;;;;;7.03;86.37;99088.25;5027712;28;20472;-70
2023/04/24 09:43:55;;;;;;;0.40;0.40;;;;;;;7.09;86.52;99095.06;5027992;28;20026;-70
2023/04/24 09:46:23;;;;;;;0.40;0.40;;;;;;;7.22;85.74;99095.69;5026596;28;20025;-70
2023/04/24 09:48:49;;;;;;;0.40;0.40;;;;;;;7.22;86.62;99085.38;5026099;28;20050;-71
2023/04/24 09:51:15;;;;;;;0.40;0.40;;;;;;;7.38;86.92;99080.00;5027823;28;20045;-71
2023/04/24 09:53:46;;;;;;;0.80;0.80;;;;;;;7.55;85.42;99079.69;5026493;28;20025;-72
2023/04/24 09:56:14;;;;;;;0.65;0.65;;;;;;;7.48;86.63;99060.84;5027797;28;20025;-72
2023/04/24 09:58:39;;;;;;;0.52;0.52;;;;;;;7.69;86.72;99069.09;5027207;28;20028;-73
2023/04/24 10:01:05;;;;;;;0.60;0.60;;;;;;;7.71;86.38;99061.31;5025460;28;20026;-73
2023/04/24 10:03:32;;;;;;;0.43;0.43;;;;;;;7.80;85.71;99080.09;5027307;28;20105;-74
2023/04/24 10:06:02;;;;;;;0.32;0.32;;;;;;;7.96;84.60;99069.47;5027156;28;20054;-73
2023/04/24 10:08:34;;;;;;;0.88;0.88;;;;;;;7.91;84.76;99053.19;5026826;28;20049;-73
2023/04/24 10:11:00;;;;;;;0.50;0.50;;;;;;;8.06;83.01;99058.09;5026098;28;20018;-71
2023/04/24 10:13:27;;;;;;;0.40;0.40;;;;;;;8.02;82.82;99043.50;5027308;28;20037;-73
2023/04/24 10:15:53;;;;;;;0.60;0.60;;;;;;;8.10;82.90;99047.69;5027407;28;20077;-74
2023/04/24 10:18:21;;;;;;;1.75;1.65;;;;;;;8.01;82.47;99043.53;5027006;28;20041;-76
2023/04/24 10:20:46;;;;;;;0.40;0.40;;;;;;;8.00;82.17;99036.66;5027387;28;20026;-77
2023/04/24 10:23:12;;;;;;;0.60;0.60;;;;;;;8.10;82.60;99039.94;5027383;28;20112;-75
2023/04/24 10:25:38;;;;;;;0.40;0.40;;;;;;;8.04;83.59;99030.53;5025715;28;20114;-76
2023/04/24 10:28:04;;;;;;;0.38;0.38;;;;;;;8.29;83.50;99015.38;5025683;28;20026;-75
2023/04/24 10:30:34;;;;;;;0.65;0.65;;;;;;;8.32;84.51;99022.22;5026999;28;20077;-76
2023/04/24 10:33:04;;;;;;;2.15;1.85;;;;;;;8.79;82.39;99016.91;5026665;28;20085;-76
2023/04/24 10:35:38;;;;;;;0.35;0.35;;;;;;;8.66;83.76;99013.75;5025450;28;20041;-74
2023/04/24 10:38:08;;;;;;;1.48;1.40;;;;;;;8.90;84.33;99010.59;5026440;28;20036;-77
2023/04/24 10:40:35;;;;;;;0.40;0.40;;;;;;;9.42;84.00;99003.25;5026699;28;20037;-78
2023/04/24 10:43:08;;;;;;;1.67;1.27;;;;;;;9.75;82.52;99014.50;5026217;28;20034;-79
2023/04/24 10:45:34;;;;;;;0.50;0.50;;;;;;;9.91;81.04;99009.75;5025709;28;20478;-77
2023/04/24 10:48:06;;;;;;;0.40;0.40;;;;;;;10.26;78.09;98994.06;5023555;28;20111;-74
2023/04/24 10:50:47;;;;;;;3.00;2.05;;;;;;;10.12;80.98;99000.50;5025694;28;20025;-75
2023/04/24 10:53:15;;;;;;;0.88;0.88;;;;;;;10.46;81.92;99006.47;5026596;28;20025;-71
2023/04/24 10:56:13;;;;;;;0.47;0.47;;;;;;;11.68;77.96;99012.06;5026666;28;20182;-72
2023/04/24 10:58:47;;;;;;;0.50;0.50;;;;;;;12.67;71.18;98984.09;5023368;28;20124;-74
2023/04/24 11:01:35;;;;;;;0.40;0.40;;;;;;;12.17;72.54;98982.56;5026599;28;20032;-75
2023/04/24 11:04:02;;;;;;;0.60;0.60;;;;;;;11.77;74.37;98980.53;5026345;28;20026;-72
2023/04/24 11:06:32;;;;;;;0.40;0.40;;;;;;;12.36;69.95;98977.50;5026511;28;20040;-72
2023/04/24 11:09:15;;;;;;;0.68;0.68;;;;;;;12.24;71.12;98965.81;5026488;28;20028;-73
2023/04/24 11:11:46;;;;;;;0.30;0.30;;;;;;;11.82;71.92;98978.59;5025928;28;20025;-73
2023/04/24 11:14:14;;;;;;;0.30;0.30;;;;;;;11.69;70.84;98964.34;5026498;28;20022;-72
2023/04/24 11:16:54;;;;;;;0.30;0.30;;;;;;;11.19;73.09;98968.66;5025116;28;20057;-73
2023/04/24 11:19:25;;;;;;;0.30;0.30;;;;;;;11.44;73.90;98973.03;5026334;28;20033;-72
2023/04/24 11:22:01;;;;;;;0.60;0.60;;;;;;;11.97;72.50;98981.53;5026181;28;20081;-73
2023/04/24 11:24:26;;;;;;;0.35;0.35;;;;;;;12.26;69.71;98962.25;5025016;28;20036;-73
2023/04/24 11:26:54;;;;;;;1.30;1.30;;;;;;;12.08;69.13;98970.75;5026147;28;20017;-72
2023/04/24 11:29:21;;;;;;;0.40;0.40;;;;;;;11.86;70.12;98946.38;5025284;28;20033;-71
2023/04/24 11:31:49;;;;;;;0.30;0.30;;;;;;;11.64;72.10;98960.19;5025627;28;20029;-70
2023/04/24 11:34:16;;;;;;;0.95;0.88;;;;;;;12.12;68.80;98948.94;5025654;28;20496;-71
2023/04/24 11:36:48;;;;;;;12.63;2.85;;;;;;;11.96;68.50;98962.50;5025691;28;20022;-71
2023/04/24 11:39:15;;;;;;;1.95;1.52;;;;;;;11.94;68.62;98955.63;5025999;28;20280;-74